Main page
METAR-TAF:

METAR-TAF

Airports :

Oil platform

Euro, Netherlands

latitude: 51-59-52N, longitude: 3-16-30E, elevation: 18 m

Current weather observation

The report was made 20 minutes ago, at 20:55 UTC
Wind 32 kt from the South/Southwest
Temperature 17°C
Humidity 77%
Pressure 1008 hPa
Visibility 10 km or more

METAR: EHSA 282055Z AUTO 21032KT 9999 ///////// 17/13 Q1008 W18/H27

Time: 23:15 (21:15 UTC)


TAF: missing

Weather observations and forecasts of more than 4000 airports (METAR and TAF reports).

The available stations are represented by yellow and red dots on the map.

Hover mouse over dot to see the name of the station.

Then click to see weather observations and forecasts.

To change the map : click on the green buttons with a black cross to zoom in, on the green button with a dash to zoom out, or on the green arrows for adjacent maps.


METAR-TAF: